createdAt,value
2017-10-30T00:00:00.626Z,99499
2017-10-30T00:02:29.306Z,99490
2017-10-30T00:04:57.541Z,99503
2017-10-30T00:07:25.781Z,99489
2017-10-30T00:09:54.136Z,99497
2017-10-30T00:12:22.427Z,99503
2017-10-30T00:14:51.434Z,99499
2017-10-30T00:17:19.749Z,99503
2017-10-30T00:19:47.983Z,99518
2017-10-30T00:22:16.981Z,99513
2017-10-30T00:24:45.277Z,99525
2017-10-30T00:27:13.489Z,99520
2017-10-30T00:29:41.722Z,99519
2017-10-30T00:32:10.013Z,99532
2017-10-30T00:34:38.246Z,99533
2017-10-30T00:37:07.230Z,99533
2017-10-30T00:39:35.951Z,99547
2017-10-30T00:42:04.197Z,99538
2017-10-30T00:44:33.202Z,99551
2017-10-30T00:47:01.487Z,99545
2017-10-30T00:49:29.756Z,99556
2017-10-30T00:51:57.995Z,99548
2017-10-30T00:54:26.275Z,99550
2017-10-30T00:56:55.295Z,99557
2017-10-30T00:59:23.521Z,99555
2017-10-30T01:01:51.886Z,99570
2017-10-30T01:04:20.185Z,99562
2017-10-30T01:06:48.410Z,99560
2017-10-30T01:09:16.732Z,99563
2017-10-30T01:11:44.970Z,99567
2017-10-30T01:14:13.219Z,99572
2017-10-30T01:16:42.249Z,99576
2017-10-30T01:19:10.483Z,99578
2017-10-30T01:21:38.731Z,99577
2017-10-30T01:24:06.948Z,99577
2017-10-30T01:26:35.284Z,99587
2017-10-30T01:29:03.545Z,99583
2017-10-30T01:31:31.787Z,99583
2017-10-30T01:34:00.120Z,99581
2017-10-30T01:36:28.352Z,99580
2017-10-30T01:38:56.575Z,99590
2017-10-30T01:41:25.636Z,99590
2017-10-30T01:43:53.856Z,99589
2017-10-30T01:46:22.086Z,99592
2017-10-30T01:48:50.395Z,99584
2017-10-30T01:51:18.628Z,99592
2017-10-30T01:53:46.847Z,99589
2017-10-30T01:56:15.133Z,99586
2017-10-30T01:58:44.126Z,99594
2017-10-30T02:01:13.118Z,99601
2017-10-30T02:03:41.425Z,99598
2017-10-30T02:06:09.675Z,99605
2017-10-30T02:08:37.924Z,99607
2017-10-30T02:11:07.037Z,99609
2017-10-30T02:13:36.038Z,99612
2017-10-30T02:16:05.029Z,99623
2017-10-30T02:18:34.110Z,99623
2017-10-30T02:21:02.353Z,99612
2017-10-30T02:23:30.597Z,99621
2017-10-30T02:25:58.900Z,99607
2017-10-30T02:28:27.162Z,99623
2017-10-30T02:30:55.377Z,99617
2017-10-30T02:33:23.663Z,99624
2017-10-30T02:35:51.957Z,99635
2017-10-30T02:38:20.192Z,99629
2017-10-30T02:40:48.448Z,99639
2017-10-30T02:43:16.735Z,99638
2017-10-30T02:45:45.004Z,99643
2017-10-30T02:48:13.307Z,99644
2017-10-30T02:50:42.323Z,99648
2017-10-30T02:53:10.552Z,99651
2017-10-30T02:55:38.832Z,99647
2017-10-30T02:58:07.084Z,99647
2017-10-30T03:00:35.328Z,99646
2017-10-30T03:03:03.828Z,99637
2017-10-30T03:05:32.082Z,99660
2017-10-30T03:08:01.102Z,99650
2017-10-30T03:10:29.404Z,99661
2017-10-30T03:12:57.640Z,99662
2017-10-30T03:15:25.857Z,99672
2017-10-30T03:17:54.592Z,99664
2017-10-30T03:20:22.813Z,99662
2017-10-30T03:22:51.043Z,99677
2017-10-30T03:25:19.330Z,99672
2017-10-30T03:27:47.587Z,99680
2017-10-30T03:30:15.826Z,99684
2017-10-30T03:32:44.085Z,99670
2017-10-30T03:35:12.341Z,99684
2017-10-30T03:37:40.621Z,99691
2017-10-30T03:40:08.925Z,99679
2017-10-30T03:42:37.178Z,99687
2017-10-30T03:45:05.395Z,99692
2017-10-30T03:47:33.643Z,99702
2017-10-30T03:50:01.886Z,99702
2017-10-30T03:52:30.128Z,99705
2017-10-30T03:54:59.238Z,99708
2017-10-30T03:57:27.487Z,99724
2017-10-30T03:59:55.716Z,99714
2017-10-30T04:02:23.994Z,99723
2017-10-30T04:04:52.232Z,99725
2017-10-30T04:07:21.524Z,99724
2017-10-30T04:09:50.588Z,99726
2017-10-30T04:12:18.855Z,99731
2017-10-30T04:14:47.112Z,99738
2017-10-30T04:17:15.438Z,99742
2017-10-30T04:19:44.335Z,99741
2017-10-30T04:22:13.332Z,99752
2017-10-30T04:24:41.652Z,99758
2017-10-30T04:27:09.894Z,99759
2017-10-30T04:29:38.484Z,99754
2017-10-30T04:32:06.776Z,99763
2017-10-30T04:34:35.043Z,99764
2017-10-30T04:37:03.282Z,99762
2017-10-30T04:39:31.571Z,99768
2017-10-30T04:41:59.827Z,99778
2017-10-30T04:44:28.057Z,99784
2017-10-30T04:46:57.108Z,99775
2017-10-30T04:49:26.151Z,99782
2017-10-30T04:51:54.377Z,99786
2017-10-30T04:54:22.687Z,99780
2017-10-30T04:56:50.931Z,99782
2017-10-30T04:59:19.186Z,99788
2017-10-30T05:01:47.498Z,99789
2017-10-30T05:04:15.756Z,99785
2017-10-30T05:06:44.012Z,99792
2017-10-30T05:09:12.336Z,99794
2017-10-30T05:11:40.578Z,99796
2017-10-30T05:14:09.593Z,99788
2017-10-30T05:16:37.888Z,99793
2017-10-30T05:19:06.149Z,99788
2017-10-30T05:21:34.444Z,99806
2017-10-30T05:24:02.762Z,99800
2017-10-30T05:26:30.983Z,99799
2017-10-30T05:28:59.200Z,99808
2017-10-30T05:31:27.556Z,99809
2017-10-30T05:33:55.795Z,99819
2017-10-30T05:36:24.058Z,99821
2017-10-30T05:38:53.141Z,99828
2017-10-30T05:41:21.466Z,99827
2017-10-30T05:43:49.747Z,99837
2017-10-30T05:46:18.046Z,99836
2017-10-30T05:48:46.320Z,99833
2017-10-30T05:51:14.596Z,99844
2017-10-30T05:53:42.908Z,99850
2017-10-30T05:56:11.122Z,99835
2017-10-30T05:58:39.362Z,99847
2017-10-30T06:01:07.633Z,99851
2017-10-30T06:03:35.893Z,99860
2017-10-30T06:06:04.180Z,99865
2017-10-30T06:08:32.424Z,99876
2017-10-30T06:11:00.692Z,99870
2017-10-30T06:13:29.006Z,99864
2017-10-30T06:15:58.049Z,99887
2017-10-30T06:18:26.323Z,99894
2017-10-30T06:20:54.589Z,99896
2017-10-30T06:23:24.069Z,99902
2017-10-30T06:25:53.069Z,99907
2017-10-30T06:28:21.323Z,99920
2017-10-30T06:30:50.417Z,99922
2017-10-30T06:33:19.447Z,99911
2017-10-30T06:35:47.694Z,99927
2017-10-30T06:38:16.095Z,99934
2017-10-30T06:40:44.356Z,99940
2017-10-30T06:43:12.584Z,99940
2017-10-30T06:45:40.898Z,99944
2017-10-30T06:48:09.920Z,99955
2017-10-30T06:50:38.167Z,99960
2017-10-30T06:53:06.515Z,99954
2017-10-30T06:55:34.799Z,99966
2017-10-30T06:58:03.076Z,99969
2017-10-30T07:00:31.385Z,99972
2017-10-30T07:02:59.767Z,99984
2017-10-30T07:05:28.014Z,99982
2017-10-30T07:07:57.428Z,99974
2017-10-30T07:10:26.427Z,99979
2017-10-30T07:12:55.462Z,99983
2017-10-30T07:15:23.740Z,99990
2017-10-30T07:17:51.978Z,99996
2017-10-30T07:20:20.305Z,99999
2017-10-30T07:22:48.600Z,100006
2017-10-30T07:25:16.859Z,100009
2017-10-30T07:27:45.300Z,100013
2017-10-30T07:30:14.483Z,100023
2017-10-30T07:32:44.197Z,100019
2017-10-30T07:35:12.455Z,100024
2017-10-30T07:37:41.488Z,100024
2017-10-30T07:40:09.831Z,100021
2017-10-30T07:42:38.089Z,100019
2017-10-30T07:45:06.387Z,100037
2017-10-30T07:47:34.738Z,100036
2017-10-30T07:50:03.013Z,100051
2017-10-30T07:52:31.282Z,100048
2017-10-30T07:54:59.639Z,100051
2017-10-30T07:57:27.902Z,100043
2017-10-30T07:59:56.165Z,100047
2017-10-30T08:02:24.506Z,100060
2017-10-30T08:04:53.565Z,100045
2017-10-30T08:07:21.808Z,100049
2017-10-30T08:09:50.887Z,100062
2017-10-30T08:12:19.137Z,100054
2017-10-30T08:14:47.412Z,100048
2017-10-30T08:17:15.760Z,100049
2017-10-30T08:19:44.012Z,100060
2017-10-30T08:22:13.038Z,100057
2017-10-30T08:24:41.420Z,100064
2017-10-30T08:27:09.675Z,100066
2017-10-30T08:29:37.956Z,100057
2017-10-30T08:32:06.306Z,100058
2017-10-30T08:34:34.561Z,100069
2017-10-30T08:37:03.597Z,100074
2017-10-30T08:39:31.908Z,100087
2017-10-30T08:42:00.932Z,100075
2017-10-30T08:44:29.204Z,100069
2017-10-30T08:46:57.539Z,100086
2017-10-30T08:49:25.822Z,100082
2017-10-30T08:51:54.051Z,100073
2017-10-30T08:54:22.346Z,100085
2017-10-30T08:56:50.599Z,100075
2017-10-30T08:59:18.956Z,100084
2017-10-30T09:01:47.973Z,100085
2017-10-30T09:04:16.305Z,100089
2017-10-30T09:06:44.632Z,100082
2017-10-30T09:09:12.888Z,100095
2017-10-30T09:11:41.178Z,100087
2017-10-30T09:14:09.492Z,100086
2017-10-30T09:16:37.760Z,100094
2017-10-30T09:19:06.170Z,100091
2017-10-30T09:21:35.231Z,100087
2017-10-30T09:24:03.517Z,100087
2017-10-30T09:26:32.642Z,100093
2017-10-30T09:29:01.695Z,100115
2017-10-30T09:31:29.943Z,100109
2017-10-30T09:33:58.289Z,100106
2017-10-30T09:36:27.374Z,100106
2017-10-30T09:38:55.675Z,100087
2017-10-30T09:41:24.017Z,100102
2017-10-30T09:43:52.260Z,100106
2017-10-30T09:46:20.516Z,100101
2017-10-30T09:48:48.838Z,100104
2017-10-30T09:51:17.129Z,100111
2017-10-30T09:53:46.297Z,100119
2017-10-30T09:56:14.542Z,100117
2017-10-30T09:58:42.831Z,100116
2017-10-30T10:01:11.226Z,100121
2017-10-30T10:03:39.560Z,100124
2017-10-30T10:06:07.833Z,100130
2017-10-30T10:08:36.530Z,100126
2017-10-30T10:11:04.842Z,100136
2017-10-30T10:13:33.174Z,100134
2017-10-30T10:16:01.549Z,100126
2017-10-30T10:18:29.817Z,100133
2017-10-30T10:20:58.102Z,100144
2017-10-30T10:23:26.937Z,100148
2017-10-30T10:25:55.188Z,100144
2017-10-30T10:28:23.450Z,100137
2017-10-30T10:30:51.763Z,100134
2017-10-30T10:33:20.039Z,100144
2017-10-30T10:35:48.293Z,100137
2017-10-30T10:38:16.592Z,100147
2017-10-30T10:40:44.863Z,100156
2017-10-30T10:43:13.096Z,100162
2017-10-30T10:45:41.438Z,100148
2017-10-30T10:48:09.709Z,100155
2017-10-30T10:50:37.970Z,100164
2017-10-30T10:53:06.270Z,100156
2017-10-30T10:55:34.563Z,100156
2017-10-30T10:58:03.586Z,100162
2017-10-30T11:00:31.912Z,100148
2017-10-30T11:03:00.175Z,100155
2017-10-30T11:05:28.415Z,100157
2017-10-30T11:07:56.697Z,100147
2017-10-30T11:10:24.937Z,100165
2017-10-30T11:12:53.978Z,100167
2017-10-30T11:15:22.307Z,100165
2017-10-30T11:17:51.308Z,100174
2017-10-30T11:20:19.566Z,100171
2017-10-30T11:22:48.666Z,100158
2017-10-30T11:25:17.678Z,100164
2017-10-30T11:27:45.962Z,100155
2017-10-30T11:30:14.252Z,100168
2017-10-30T11:32:42.513Z,100161
2017-10-30T11:35:10.775Z,100161
2017-10-30T11:37:39.067Z,100168
2017-10-30T11:40:07.334Z,100176
2017-10-30T11:42:35.587Z,100175
2017-10-30T11:45:04.668Z,100157
2017-10-30T11:47:32.927Z,100164
2017-10-30T11:50:01.325Z,100167
2017-10-30T11:52:29.625Z,100176
2017-10-30T11:54:57.902Z,100160
2017-10-30T11:57:26.154Z,100166
2017-10-30T11:59:55.244Z,100170
2017-10-30T12:02:24.290Z,100187
2017-10-30T12:04:52.553Z,100176
2017-10-30T12:07:20.908Z,100190
2017-10-30T12:09:50.443Z,100182
2017-10-30T12:12:18.751Z,100211
2017-10-30T12:14:47.065Z,100202
2017-10-30T12:17:16.069Z,100205
2017-10-30T12:19:45.118Z,100213
2017-10-30T12:22:13.467Z,100217
2017-10-30T12:24:41.768Z,100224
2017-10-30T12:27:10.080Z,100232
2017-10-30T12:29:39.170Z,100247
2017-10-30T12:32:07.484Z,100242
2017-10-30T12:34:35.756Z,100245
2017-10-30T12:37:04.105Z,100263
2017-10-30T12:39:33.125Z,100260
2017-10-30T12:42:01.377Z,100254
2017-10-30T12:44:30.453Z,100250
2017-10-30T12:46:58.693Z,100265
2017-10-30T12:49:26.937Z,100264
2017-10-30T12:51:55.230Z,100268
2017-10-30T12:54:23.479Z,100267
2017-10-30T12:56:52.510Z,100277
2017-10-30T12:59:20.801Z,100266
2017-10-30T13:01:49.051Z,100264
2017-10-30T13:04:17.388Z,100262
2017-10-30T13:06:46.470Z,100269
2017-10-30T13:09:14.811Z,100262
2017-10-30T13:11:43.134Z,100277
2017-10-30T13:14:12.184Z,100282
2017-10-30T13:16:40.479Z,100291
2017-10-30T13:19:08.791Z,100298
2017-10-30T13:21:37.844Z,100305
2017-10-30T13:24:06.120Z,100309
2017-10-30T13:26:34.438Z,100321
2017-10-30T13:29:03.517Z,100321
2017-10-30T13:31:31.794Z,100318
2017-10-30T13:34:00.827Z,100316
2017-10-30T13:36:29.153Z,100317
2017-10-30T13:38:57.384Z,100293
2017-10-30T13:41:25.647Z,100320
2017-10-30T13:43:53.930Z,100314
2017-10-30T13:46:22.212Z,100323
2017-10-30T13:48:50.476Z,100314
2017-10-30T13:51:18.760Z,100334
2017-10-30T13:53:47.094Z,100341
2017-10-30T13:56:16.170Z,100335
2017-10-30T13:58:44.454Z,100342
2017-10-30T14:01:12.746Z,100366
2017-10-30T14:03:41.031Z,100355
2017-10-30T14:06:09.393Z,100357
2017-10-30T14:08:38.421Z,100363
2017-10-30T14:11:06.669Z,100371
2017-10-30T14:13:35.764Z,100366
2017-10-30T14:16:05.191Z,100371
2017-10-30T14:18:33.526Z,100379
2017-10-30T14:21:01.866Z,100388
2017-10-30T14:23:30.171Z,100386
2017-10-30T14:25:58.447Z,100391
2017-10-30T14:28:26.759Z,100400
2017-10-30T14:30:55.041Z,100399
2017-10-30T14:33:23.565Z,100407
2017-10-30T14:35:51.878Z,100414
2017-10-30T14:38:20.931Z,100419
2017-10-30T14:40:49.912Z,100423
2017-10-30T14:43:18.231Z,100412
2017-10-30T14:45:46.481Z,100430
2017-10-30T14:48:14.798Z,100438
2017-10-30T14:50:43.858Z,100442
2017-10-30T14:53:12.105Z,100439
2017-10-30T14:55:40.379Z,100453
2017-10-30T14:58:08.664Z,100451
2017-10-30T15:00:36.908Z,100458
2017-10-30T15:03:05.961Z,100463
2017-10-30T15:05:34.300Z,100463
2017-10-30T15:08:02.579Z,100464
2017-10-30T15:10:30.838Z,100460
2017-10-30T15:12:59.136Z,100470
2017-10-30T15:15:27.363Z,100467
2017-10-30T15:17:56.399Z,100480
2017-10-30T15:20:24.726Z,100487
2017-10-30T15:22:53.997Z,100481
2017-10-30T15:25:22.268Z,100486
2017-10-30T15:27:50.580Z,100488
2017-10-30T15:30:18.805Z,100496
2017-10-30T15:32:47.087Z,100508
2017-10-30T15:35:15.391Z,100504
2017-10-30T15:37:43.667Z,100512
2017-10-30T15:40:11.950Z,100519
2017-10-30T15:42:40.286Z,100520
2017-10-30T15:45:08.588Z,100520
2017-10-30T15:47:36.877Z,100527
2017-10-30T15:50:05.204Z,100535
2017-10-30T15:52:33.471Z,100536
2017-10-30T15:55:01.741Z,100549
2017-10-30T15:57:30.051Z,100553
2017-10-30T15:59:58.348Z,100552
2017-10-30T16:02:26.597Z,100554
2017-10-30T16:04:54.966Z,100555
2017-10-30T16:07:23.209Z,100563
2017-10-30T16:09:52.315Z,100580
2017-10-30T16:12:20.678Z,100573
2017-10-30T16:14:48.980Z,100588
2017-10-30T16:17:17.282Z,100592
2017-10-30T16:19:45.651Z,100599
2017-10-30T16:22:13.925Z,100594
2017-10-30T16:24:42.513Z,100600
2017-10-30T16:27:11.075Z,100608
2017-10-30T16:29:39.364Z,100616
2017-10-30T16:32:07.609Z,100610
2017-10-30T16:34:35.888Z,100617
2017-10-30T16:37:04.150Z,100624
2017-10-30T16:39:33.153Z,100624
2017-10-30T16:42:02.320Z,100633
2017-10-30T16:44:30.561Z,100630
2017-10-30T16:46:58.826Z,100633
2017-10-30T16:49:27.167Z,100645
2017-10-30T16:51:56.195Z,100642
2017-10-30T16:54:24.443Z,100644
2017-10-30T16:56:52.808Z,100649
2017-10-30T16:59:22.420Z,100658
2017-10-30T17:01:51.456Z,100657
2017-10-30T17:04:19.751Z,100656
2017-10-30T17:06:48.203Z,100657
2017-10-30T17:09:16.474Z,100663
2017-10-30T17:11:46.853Z,100670
2017-10-30T17:14:15.109Z,100675
2017-10-30T17:16:43.357Z,100679
2017-10-30T17:19:11.717Z,100684
2017-10-30T17:21:39.967Z,100692
2017-10-30T17:24:14.063Z,100691
2017-10-30T17:26:42.340Z,100691
2017-10-30T17:29:10.565Z,100697
2017-10-30T17:31:38.843Z,100699
2017-10-30T17:34:07.076Z,100706
2017-10-30T17:36:36.098Z,100697
2017-10-30T17:39:04.638Z,100701
2017-10-30T17:41:32.892Z,100702
2017-10-30T17:44:01.124Z,100704
2017-10-30T17:46:29.425Z,100710
2017-10-30T17:48:57.699Z,100706
2017-10-30T17:51:25.977Z,100710
2017-10-30T17:53:54.358Z,100700
2017-10-30T17:56:22.607Z,100711
2017-10-30T17:58:51.623Z,100713
2017-10-30T18:01:19.952Z,100715
2017-10-30T18:03:48.264Z,100716
2017-10-30T18:06:16.510Z,100713
2017-10-30T18:08:44.803Z,100712
2017-10-30T18:11:13.803Z,100714
2017-10-30T18:13:42.108Z,100718
2017-10-30T18:16:10.426Z,100713
2017-10-30T18:18:38.708Z,100717
2017-10-30T18:21:07.726Z,100719
2017-10-30T18:23:36.097Z,100716
2017-10-30T18:26:04.386Z,100729
2017-10-30T18:28:32.694Z,100726
2017-10-30T18:31:01.077Z,100727
2017-10-30T18:33:29.410Z,100726
2017-10-30T18:35:57.696Z,100723
2017-10-30T18:38:25.963Z,100735
2017-10-30T18:40:54.291Z,100732
2017-10-30T18:43:22.558Z,100741
2017-10-30T18:45:50.806Z,100728
2017-10-30T18:48:19.139Z,100734
2017-10-30T18:50:48.242Z,100728
2017-10-30T18:53:17.272Z,100738
2017-10-30T18:55:45.634Z,100740
2017-10-30T18:58:13.889Z,100744
2017-10-30T19:00:42.940Z,100739
2017-10-30T19:03:11.344Z,100749
2017-10-30T19:05:39.608Z,100753
2017-10-30T19:08:08.233Z,100755
2017-10-30T19:10:37.311Z,100760
2017-10-30T19:13:06.339Z,100764
2017-10-30T19:15:34.645Z,100769
2017-10-30T19:18:03.535Z,100771
2017-10-30T19:20:31.808Z,100773
2017-10-30T19:23:00.101Z,100783
2017-10-30T19:25:28.458Z,100789
2017-10-30T19:27:56.735Z,100782
2017-10-30T19:30:25.046Z,100787
2017-10-30T19:32:53.353Z,100791
2017-10-30T19:35:21.644Z,100801
2017-10-30T19:37:49.986Z,100796
2017-10-30T19:40:19.072Z,100800
2017-10-30T19:42:47.342Z,100803
2017-10-30T19:45:15.623Z,100807
2017-10-30T19:47:43.973Z,100821
2017-10-30T19:50:12.218Z,100824
2017-10-30T19:52:40.512Z,100815
2017-10-30T19:55:08.825Z,100819
2017-10-30T19:57:37.864Z,100830
2017-10-30T20:00:06.100Z,100828
2017-10-30T20:02:34.392Z,100845
2017-10-30T20:05:08.338Z,100836
2017-10-30T20:07:54.889Z,100833
2017-10-30T20:10:28.755Z,100844
2017-10-30T20:12:57.069Z,100838
2017-10-30T20:15:25.368Z,100836
2017-10-30T20:17:53.622Z,100844
2017-10-30T20:20:21.913Z,100838
2017-10-30T20:22:50.948Z,100837
2017-10-30T20:25:19.230Z,100847
2017-10-30T20:27:47.550Z,100848
2017-10-30T20:30:16.613Z,100844
2017-10-30T20:32:44.852Z,100849
2017-10-30T20:35:13.176Z,100854
2017-10-30T20:37:42.225Z,100858
2017-10-30T20:40:10.513Z,100851
2017-10-30T20:42:38.799Z,100858
2017-10-30T20:45:07.050Z,100853
2017-10-30T20:47:35.407Z,100865
2017-10-30T20:50:04.567Z,100867
2017-10-30T20:52:32.877Z,100858
2017-10-30T20:55:01.925Z,100863
2017-10-30T20:57:30.315Z,100871
2017-10-30T20:59:58.555Z,100874
2017-10-30T21:02:27.088Z,100865
2017-10-30T21:04:56.219Z,100873
2017-10-30T21:07:24.479Z,100865
2017-10-30T21:09:53.489Z,100864
2017-10-30T21:12:21.810Z,100869
2017-10-30T21:14:50.092Z,100867
2017-10-30T21:17:18.459Z,100872
2017-10-30T21:19:46.706Z,100878
2017-10-30T21:22:14.948Z,100881
2017-10-30T21:24:44.044Z,100876
2017-10-30T21:27:13.082Z,100871
2017-10-30T21:29:41.364Z,100874
2017-10-30T21:32:09.650Z,100869
2017-10-30T21:34:37.961Z,100869
2017-10-30T21:37:07.042Z,100870
2017-10-30T21:39:35.386Z,100863
2017-10-30T21:42:03.786Z,100864
2017-10-30T21:44:32.125Z,100858
2017-10-30T21:47:00.377Z,100856
2017-10-30T21:49:28.703Z,100863
2017-10-30T21:51:57.046Z,100859
2017-10-30T21:54:25.297Z,100857
2017-10-30T21:56:54.318Z,100852
2017-10-30T21:59:22.646Z,100850
2017-10-30T22:01:51.724Z,100849
2017-10-30T22:04:20.652Z,100852
2017-10-30T22:06:49.666Z,100856
2017-10-30T22:09:17.941Z,100865
2017-10-30T22:11:46.717Z,100866
2017-10-30T22:14:15.755Z,100857
2017-10-30T22:16:44.011Z,100854
2017-10-30T22:19:12.350Z,100858
2017-10-30T22:21:41.393Z,100858
2017-10-30T22:24:09.643Z,100861
2017-10-30T22:26:37.938Z,100855
2017-10-30T22:29:06.214Z,100858
2017-10-30T22:31:34.556Z,100862
2017-10-30T22:34:02.852Z,100861
2017-10-30T22:36:31.127Z,100868
2017-10-30T22:38:59.420Z,100856
2017-10-30T22:41:27.719Z,100865
2017-10-30T22:43:55.981Z,100866
2017-10-30T22:46:24.354Z,100873
2017-10-30T22:48:52.726Z,100870
2017-10-30T22:51:21.017Z,100864
2017-10-30T22:53:49.358Z,100874
2017-10-30T22:56:17.627Z,100874
2017-10-30T22:58:45.916Z,100872
2017-10-30T23:01:14.237Z,100874
2017-10-30T23:03:42.495Z,100877
2017-10-30T23:06:10.720Z,100884
2017-10-30T23:08:40.455Z,100883
2017-10-30T23:11:10.392Z,100882
2017-10-30T23:13:38.671Z,100877
2017-10-30T23:16:07.319Z,100880
2017-10-30T23:18:35.590Z,100884
2017-10-30T23:21:03.901Z,100882
2017-10-30T23:23:32.353Z,100891
2017-10-30T23:26:00.596Z,100893
2017-10-30T23:28:28.825Z,100891
2017-10-30T23:30:57.174Z,100902
2017-10-30T23:33:25.445Z,100896
2017-10-30T23:35:54.466Z,100892
2017-10-30T23:38:22.799Z,100888
2017-10-30T23:40:51.157Z,100891
2017-10-30T23:43:19.969Z,100883
2017-10-30T23:45:49.029Z,100888
2017-10-30T23:48:17.286Z,100886
2017-10-30T23:50:45.571Z,100891
2017-10-30T23:53:13.853Z,100885
2017-10-30T23:55:42.111Z,100897
2017-10-30T23:58:10.450Z,100890
